createdAt,value
2022-12-24T00:01:39.460Z,1.00
2022-12-24T00:03:44.403Z,1.00
2022-12-24T00:05:49.442Z,1.00
2022-12-24T00:07:54.744Z,1.00
2022-12-24T00:09:59.660Z,1.00
2022-12-24T00:12:04.978Z,1.00
2022-12-24T00:14:10.097Z,1.00
2022-12-24T00:16:16.224Z,1.00
2022-12-24T00:18:23.752Z,1.00
2022-12-24T00:20:29.095Z,1.00
2022-12-24T00:22:34.052Z,1.00
2022-12-24T00:24:39.573Z,1.00
2022-12-24T00:26:44.524Z,1.00
2022-12-24T00:28:49.542Z,1.00
2022-12-24T00:30:54.488Z,1.00
2022-12-24T00:32:59.487Z,1.00
2022-12-24T00:35:07.763Z,1.00
2022-12-24T00:37:13.020Z,1.00
2022-12-24T00:39:19.266Z,1.00
2022-12-24T00:41:29.610Z,1.00
2022-12-24T00:43:35.090Z,1.00
2022-12-24T00:45:40.043Z,1.00
2022-12-24T00:47:45.539Z,1.00
2022-12-24T00:49:50.499Z,1.00
2022-12-24T00:51:58.047Z,1.00
2022-12-24T00:54:03.127Z,1.00
2022-12-24T00:56:09.833Z,1.00
2022-12-24T00:58:14.808Z,1.00
2022-12-24T01:00:20.714Z,1.00
2022-12-24T01:02:26.219Z,1.00
2022-12-24T01:04:43.732Z,1.00
2022-12-24T01:06:48.689Z,1.00
2022-12-24T01:08:56.195Z,1.00
2022-12-24T01:11:01.943Z,1.00
2022-12-24T01:13:07.180Z,1.00
2022-12-24T01:15:14.308Z,1.00
2022-12-24T01:17:19.722Z,1.00
2022-12-24T01:19:24.703Z,1.00
2022-12-24T01:21:29.613Z,1.00
2022-12-24T01:23:35.098Z,1.00
2022-12-24T01:25:45.784Z,1.00
2022-12-24T01:27:50.747Z,1.00
2022-12-24T01:29:55.656Z,1.00
2022-12-24T01:32:00.997Z,1.00
2022-12-24T01:34:06.305Z,99.90
2022-12-24T01:36:13.373Z,99.90
2022-12-24T01:38:18.684Z,99.90
2022-12-24T01:40:36.180Z,1.00
2022-12-24T01:43:02.009Z,99.90
2022-12-24T01:45:43.310Z,99.90
2022-12-24T01:47:48.555Z,1.00
2022-12-24T01:49:58.982Z,99.90
2022-12-24T01:52:08.371Z,99.90
2022-12-24T01:54:19.023Z,99.90
2022-12-24T01:56:24.516Z,99.90
2022-12-24T01:58:32.617Z,99.90
2022-12-24T02:00:37.816Z,99.90
2022-12-24T02:02:47.189Z,99.90
2022-12-24T02:05:00.359Z,99.90
2022-12-24T02:07:05.368Z,99.90
2022-12-24T02:09:10.354Z,99.90
2022-12-24T02:11:20.470Z,99.90
2022-12-24T02:13:32.933Z,99.90
2022-12-24T02:15:48.637Z,99.90
2022-12-24T02:18:07.716Z,99.90
2022-12-24T02:20:55.481Z,99.90
2022-12-24T02:23:46.776Z,99.90
2022-12-24T02:26:21.144Z,99.90
2022-12-24T02:28:47.113Z,99.90
2022-12-24T02:31:01.865Z,99.90
2022-12-24T02:33:25.596Z,99.90
2022-12-24T02:35:40.535Z,99.90
2022-12-24T02:37:52.163Z,99.90
2022-12-24T02:40:04.860Z,99.90
2022-12-24T02:42:14.578Z,99.90
2022-12-24T02:44:23.378Z,99.90
2022-12-24T02:46:34.929Z,99.90
2022-12-24T02:48:44.132Z,99.90
2022-12-24T02:51:06.531Z,99.90
2022-12-24T02:53:13.369Z,99.90
2022-12-24T02:55:24.719Z,99.90
2022-12-24T02:57:41.820Z,99.90
2022-12-24T03:00:05.229Z,99.90
2022-12-24T03:02:27.180Z,99.90
2022-12-24T03:04:44.225Z,99.90
2022-12-24T03:07:01.510Z,99.90
2022-12-24T03:09:17.394Z,99.90
2022-12-24T03:11:22.788Z,99.90
2022-12-24T03:13:29.699Z,99.90
2022-12-24T03:15:36.279Z,99.90
2022-12-24T03:17:50.593Z,99.90
2022-12-24T03:19:58.125Z,99.90
2022-12-24T03:22:07.205Z,99.90
2022-12-24T03:24:13.443Z,99.90
2022-12-24T03:26:21.969Z,99.90
2022-12-24T03:28:31.140Z,99.90
2022-12-24T03:30:36.314Z,1.00
2022-12-24T03:32:44.603Z,99.90
2022-12-24T03:34:49.534Z,1.00
2022-12-24T03:36:54.642Z,1.00
2022-12-24T03:38:59.574Z,1.00
2022-12-24T03:41:05.008Z,1.00
2022-12-24T03:43:09.913Z,1.00
2022-12-24T03:45:14.835Z,1.00
2022-12-24T03:47:19.788Z,1.00
2022-12-24T03:49:27.308Z,1.00
2022-12-24T03:51:33.355Z,1.00
2022-12-24T03:53:38.295Z,1.00
2022-12-24T03:55:44.170Z,1.00
2022-12-24T03:57:49.550Z,1.00
2022-12-24T03:59:54.639Z,1.00
2022-12-24T04:01:59.721Z,1.00
2022-12-24T04:04:05.262Z,1.00
2022-12-24T04:06:16.029Z,1.00
2022-12-24T04:08:20.976Z,1.00
2022-12-24T04:10:25.968Z,1.00
2022-12-24T04:12:31.259Z,1.00
2022-12-24T04:14:37.118Z,1.00
2022-12-24T04:16:42.148Z,1.00
2022-12-24T04:18:48.048Z,1.00
2022-12-24T04:20:53.327Z,1.00
2022-12-24T04:23:00.834Z,1.00
2022-12-24T04:25:06.227Z,1.00
2022-12-24T04:27:11.506Z,1.00
2022-12-24T04:29:16.476Z,1.00
2022-12-24T04:31:22.463Z,1.00
2022-12-24T04:33:27.457Z,1.00
2022-12-24T04:35:32.421Z,1.00
2022-12-24T04:37:37.914Z,1.00
2022-12-24T04:39:45.470Z,1.00
2022-12-24T04:41:50.426Z,1.00
2022-12-24T04:43:57.618Z,1.00
2022-12-24T04:46:08.703Z,1.00
2022-12-24T04:48:14.005Z,1.00
2022-12-24T04:50:19.443Z,1.00
2022-12-24T04:52:24.380Z,1.00
2022-12-24T04:54:29.836Z,1.00
2022-12-24T04:56:37.328Z,1.00
2022-12-24T04:58:42.953Z,1.00
2022-12-24T05:00:47.989Z,1.00
2022-12-24T05:02:53.387Z,1.00
2022-12-24T05:04:59.656Z,1.00
2022-12-24T05:07:04.918Z,1.00
2022-12-24T05:09:09.894Z,1.00
2022-12-24T05:11:15.903Z,1.00
2022-12-24T05:13:23.393Z,1.00
2022-12-24T05:15:28.386Z,1.00
2022-12-24T05:17:34.057Z,1.00
2022-12-24T05:19:39.047Z,1.00
2022-12-24T05:21:44.332Z,1.00
2022-12-24T05:24:02.218Z,1.00
2022-12-24T05:26:22.596Z,1.00
2022-12-24T05:28:30.489Z,1.00
2022-12-24T05:30:35.798Z,1.00
2022-12-24T05:32:40.804Z,1.00
2022-12-24T05:34:46.430Z,1.00
2022-12-24T05:36:51.339Z,1.00
2022-12-24T05:38:56.622Z,1.00
2022-12-24T05:41:01.920Z,1.00
2022-12-24T05:43:07.251Z,1.00
2022-12-24T05:45:15.182Z,1.00
2022-12-24T05:47:19.910Z,1.00
2022-12-24T05:49:25.625Z,1.00
2022-12-24T05:51:30.682Z,1.00
2022-12-24T05:53:36.392Z,1.00
2022-12-24T05:55:41.955Z,1.00
2022-12-24T05:57:47.104Z,1.00
2022-12-24T05:59:52.067Z,1.00
2022-12-24T06:02:00.072Z,1.00
2022-12-24T06:04:05.551Z,1.00
2022-12-24T06:06:13.264Z,1.00
2022-12-24T06:08:18.872Z,1.00
2022-12-24T06:10:23.857Z,1.00
2022-12-24T06:12:29.570Z,1.00
2022-12-24T06:14:34.901Z,1.00
2022-12-24T06:16:40.017Z,1.00
2022-12-24T06:18:48.446Z,1.00
2022-12-24T06:20:54.876Z,1.00
2022-12-24T06:22:59.834Z,1.00
2022-12-24T06:25:05.341Z,1.00
2022-12-24T06:27:10.288Z,1.00
2022-12-24T06:29:15.195Z,1.00
2022-12-24T06:31:24.065Z,1.00
2022-12-24T06:33:29.099Z,1.00
2022-12-24T06:35:37.460Z,1.00
2022-12-24T06:37:42.823Z,1.00
2022-12-24T06:39:48.679Z,1.00
2022-12-24T06:41:54.215Z,1.00
2022-12-24T06:43:59.457Z,1.00
2022-12-24T06:46:05.733Z,1.00
2022-12-24T06:48:10.727Z,1.00
2022-12-24T06:50:16.664Z,1.00
2022-12-24T06:52:24.986Z,1.00
2022-12-24T06:54:29.905Z,1.00
2022-12-24T06:56:35.474Z,1.00
2022-12-24T06:58:41.003Z,1.00
2022-12-24T07:00:45.977Z,1.00
2022-12-24T07:02:51.522Z,1.00
2022-12-24T07:04:56.900Z,1.00
2022-12-24T07:07:01.900Z,1.00
2022-12-24T07:09:09.470Z,1.00
2022-12-24T07:11:14.767Z,1.00
2022-12-24T07:13:20.524Z,1.00
2022-12-24T07:15:25.444Z,1.00
2022-12-24T07:17:30.996Z,2.50
2022-12-24T07:19:36.138Z,59.00
2022-12-24T07:21:41.124Z,76.70
2022-12-24T07:23:46.053Z,90.20
2022-12-24T07:25:54.084Z,95.20
2022-12-24T07:27:59.360Z,99.90
2022-12-24T07:30:04.263Z,99.90
2022-12-24T07:32:09.368Z,99.90
2022-12-24T07:34:14.942Z,99.90
2022-12-24T07:36:24.555Z,99.90
2022-12-24T07:38:29.944Z,99.90
2022-12-24T07:40:36.911Z,99.90
2022-12-24T07:42:44.470Z,99.90
2022-12-24T07:44:50.165Z,99.90
2022-12-24T07:46:55.170Z,99.90
2022-12-24T07:49:01.374Z,99.90
2022-12-24T07:51:07.016Z,99.90
2022-12-24T07:53:12.314Z,99.90
2022-12-24T07:55:17.817Z,99.90
2022-12-24T07:57:22.799Z,99.90
2022-12-24T07:59:30.374Z,99.90
2022-12-24T08:01:35.360Z,99.90
2022-12-24T08:03:41.335Z,99.90
2022-12-24T08:05:46.450Z,99.90
2022-12-24T08:07:51.703Z,99.90
2022-12-24T08:09:56.828Z,99.90
2022-12-24T08:12:02.434Z,99.90
2022-12-24T08:14:07.369Z,99.90
2022-12-24T08:16:15.435Z,99.90
2022-12-24T08:18:20.343Z,99.90
2022-12-24T08:20:25.417Z,80.30
2022-12-24T08:22:31.388Z,36.40
2022-12-24T08:24:37.510Z,48.10
2022-12-24T08:26:42.816Z,47.30
2022-12-24T08:28:47.797Z,49.30
2022-12-24T08:30:54.294Z,32.20
2022-12-24T08:33:01.841Z,58.00
2022-12-24T08:35:07.829Z,7.60
2022-12-24T08:37:13.498Z,10.90
2022-12-24T08:39:18.588Z,24.10
2022-12-24T08:41:23.706Z,28.80
2022-12-24T08:43:29.276Z,32.00
2022-12-24T08:45:40.152Z,29.80
2022-12-24T08:47:46.999Z,28.80
2022-12-24T08:49:54.581Z,27.20
2022-12-24T08:52:01.330Z,23.60
2022-12-24T08:54:06.702Z,31.40
2022-12-24T08:56:13.139Z,29.90
2022-12-24T08:58:18.087Z,29.40
2022-12-24T09:00:24.050Z,21.90
2022-12-24T09:02:29.064Z,25.70
2022-12-24T09:04:34.182Z,27.40
2022-12-24T09:06:41.727Z,25.30
2022-12-24T09:08:47.764Z,26.60
2022-12-24T09:10:53.434Z,14.20
2022-12-24T09:12:58.731Z,27.50
2022-12-24T09:15:04.466Z,25.60
2022-12-24T09:17:09.752Z,27.20
2022-12-24T09:19:14.687Z,22.00
2022-12-24T09:21:20.624Z,8.70
2022-12-24T09:23:28.151Z,29.00
2022-12-24T09:25:33.064Z,34.10
2022-12-24T09:27:38.434Z,37.30
2022-12-24T09:29:43.478Z,18.50
2022-12-24T09:31:50.146Z,21.50
2022-12-24T09:33:55.360Z,27.90
2022-12-24T09:36:00.611Z,23.00
2022-12-24T09:38:05.702Z,35.50
2022-12-24T09:40:27.804Z,34.70
2022-12-24T09:42:47.117Z,51.30
2022-12-24T09:45:00.416Z,43.60
2022-12-24T09:47:14.127Z,48.80
2022-12-24T09:49:24.979Z,49.70
2022-12-24T09:51:37.325Z,38.30
2022-12-24T09:53:50.059Z,43.70
2022-12-24T09:56:02.796Z,35.30
2022-12-24T09:58:09.956Z,38.60
2022-12-24T10:00:24.093Z,43.60
2022-12-24T10:02:29.772Z,23.60
2022-12-24T10:04:34.877Z,31.90
2022-12-24T10:06:50.395Z,38.20
2022-12-24T10:09:09.179Z,28.90
2022-12-24T10:11:26.346Z,23.30
2022-12-24T10:13:51.401Z,27.10
2022-12-24T10:16:06.424Z,25.40
2022-12-24T10:18:26.808Z,19.10
2022-12-24T10:20:47.093Z,1.00
2022-12-24T10:23:02.850Z,1.00
2022-12-24T10:25:20.105Z,1.00
2022-12-24T10:27:33.371Z,1.00
2022-12-24T10:29:42.959Z,1.00
2022-12-24T10:31:56.947Z,1.00
2022-12-24T10:34:05.648Z,1.00
2022-12-24T10:36:14.807Z,1.00
2022-12-24T10:38:19.812Z,1.00
2022-12-24T10:40:35.111Z,1.00
2022-12-24T10:42:50.923Z,1.00
2022-12-24T10:45:03.930Z,1.00
2022-12-24T10:47:12.229Z,1.00
2022-12-24T10:49:20.675Z,1.00
2022-12-24T10:51:36.351Z,1.00
2022-12-24T10:53:47.271Z,1.00
2022-12-24T10:55:52.305Z,1.00
2022-12-24T10:58:07.768Z,1.00
2022-12-24T11:00:29.984Z,1.00
2022-12-24T11:02:41.332Z,1.00
2022-12-24T11:04:52.355Z,1.00
2022-12-24T11:07:04.833Z,1.00
2022-12-24T11:09:24.196Z,1.00
2022-12-24T11:11:29.854Z,1.00
2022-12-24T11:13:42.949Z,1.00
2022-12-24T11:15:48.155Z,1.00
2022-12-24T11:17:56.991Z,1.00
2022-12-24T11:20:03.426Z,1.00
2022-12-24T11:22:11.236Z,1.00
2022-12-24T11:24:28.830Z,1.00
2022-12-24T11:26:34.569Z,1.00
2022-12-24T11:28:42.106Z,1.00
2022-12-24T11:31:01.701Z,1.00
2022-12-24T11:33:22.659Z,1.00
2022-12-24T11:35:28.327Z,1.00
2022-12-24T11:37:33.349Z,1.00
2022-12-24T11:39:44.193Z,1.00
2022-12-24T11:41:50.999Z,1.00
2022-12-24T11:44:07.906Z,1.00
2022-12-24T11:46:39.216Z,1.00
2022-12-24T11:48:44.232Z,1.00
2022-12-24T11:51:00.419Z,1.00
2022-12-24T11:53:13.880Z,1.00
2022-12-24T11:55:26.357Z,1.00
2022-12-24T11:57:40.120Z,1.00
2022-12-24T11:59:52.247Z,1.00
2022-12-24T12:02:03.290Z,1.00
2022-12-24T12:04:15.793Z,1.00
2022-12-24T12:06:32.308Z,1.00
2022-12-24T12:08:40.144Z,1.00
2022-12-24T12:10:48.856Z,1.00
2022-12-24T12:13:02.827Z,1.00
2022-12-24T12:15:19.662Z,1.00
2022-12-24T12:17:35.467Z,1.00
2022-12-24T12:19:46.578Z,1.00
2022-12-24T12:21:54.581Z,1.00
2022-12-24T12:24:06.226Z,1.00
2022-12-24T12:26:17.986Z,1.00
2022-12-24T12:28:28.127Z,1.00
2022-12-24T12:30:38.551Z,1.00
2022-12-24T12:32:51.435Z,1.00
2022-12-24T12:35:07.984Z,1.00
2022-12-24T12:37:19.569Z,1.00
2022-12-24T12:39:24.516Z,1.00
2022-12-24T12:41:55.437Z,1.00
2022-12-24T12:44:24.445Z,1.00
2022-12-24T12:46:46.229Z,1.00
2022-12-24T12:49:17.259Z,1.00
2022-12-24T12:51:31.506Z,1.00
2022-12-24T12:53:53.119Z,1.00
2022-12-24T12:56:09.342Z,1.00
2022-12-24T12:58:23.049Z,1.00
2022-12-24T13:00:28.502Z,1.00
2022-12-24T13:02:59.877Z,1.00
2022-12-24T13:05:52.126Z,1.00
2022-12-24T13:08:39.746Z,1.00
2022-12-24T13:11:15.892Z,1.00
2022-12-24T13:13:42.146Z,1.00
2022-12-24T13:16:15.972Z,1.00
2022-12-24T13:18:46.887Z,1.00
2022-12-24T13:20:55.271Z,1.00
2022-12-24T13:23:03.226Z,1.00
2022-12-24T13:25:09.416Z,1.00
2022-12-24T13:27:21.317Z,1.00
2022-12-24T13:29:34.734Z,1.00
2022-12-24T13:31:39.727Z,1.00
2022-12-24T13:33:54.795Z,1.00
2022-12-24T13:36:03.223Z,1.00
2022-12-24T13:38:42.337Z,1.00
2022-12-24T13:40:47.291Z,1.00
2022-12-24T13:43:12.575Z,1.00
2022-12-24T13:45:46.631Z,1.00
2022-12-24T13:47:52.931Z,1.00
2022-12-24T13:50:15.193Z,1.00
2022-12-24T13:52:29.080Z,1.00
2022-12-24T13:54:34.296Z,1.00
2022-12-24T13:56:39.957Z,1.00
2022-12-24T13:58:50.250Z,1.00
2022-12-24T14:00:59.189Z,1.00
2022-12-24T14:03:10.754Z,1.00
2022-12-24T14:05:30.712Z,1.00
2022-12-24T14:07:37.714Z,1.00
2022-12-24T14:09:51.778Z,1.00
2022-12-24T14:12:34.207Z,1.00
2022-12-24T14:14:41.444Z,1.00
2022-12-24T14:16:53.368Z,1.00
2022-12-24T14:19:03.858Z,1.00
2022-12-24T14:21:20.613Z,1.00
2022-12-24T14:23:44.252Z,1.00
2022-12-24T14:25:49.380Z,1.00
2022-12-24T14:28:01.370Z,1.00
2022-12-24T14:30:12.832Z,1.00
2022-12-24T14:32:19.344Z,1.00
2022-12-24T14:34:24.294Z,1.00
2022-12-24T14:36:34.566Z,1.00
2022-12-24T14:38:40.070Z,1.00
2022-12-24T14:40:56.227Z,1.00
2022-12-24T14:43:09.651Z,1.00
2022-12-24T14:45:29.042Z,1.00
2022-12-24T14:47:43.197Z,1.00
2022-12-24T14:50:07.349Z,1.00
2022-12-24T14:53:03.513Z,1.00
2022-12-24T14:54:53.711Z,1.00
2022-12-24T14:57:22.388Z,1.00
2022-12-24T14:59:27.921Z,1.00
2022-12-24T15:01:39.120Z,1.00
2022-12-24T15:03:44.255Z,1.00
2022-12-24T15:05:55.679Z,1.00
2022-12-24T15:08:06.859Z,1.00
2022-12-24T15:10:31.798Z,1.00
2022-12-24T15:12:37.301Z,1.00
2022-12-24T15:14:46.698Z,1.00
2022-12-24T15:16:57.955Z,1.00
2022-12-24T15:19:08.464Z,1.00
2022-12-24T15:21:21.152Z,1.00
2022-12-24T15:23:32.530Z,1.00
2022-12-24T15:25:37.748Z,1.00
2022-12-24T15:27:42.992Z,1.00
2022-12-24T15:29:52.009Z,1.00
2022-12-24T15:31:58.137Z,1.00
2022-12-24T15:34:03.609Z,1.00
2022-12-24T15:36:11.462Z,1.00
2022-12-24T15:38:37.672Z,1.00
2022-12-24T15:40:42.964Z,1.00
2022-12-24T15:42:48.236Z,1.00
2022-12-24T15:45:03.490Z,1.00
2022-12-24T15:47:17.104Z,1.00
2022-12-24T15:49:30.679Z,1.00
2022-12-24T15:51:40.688Z,1.00
2022-12-24T15:53:49.223Z,1.00
2022-12-24T15:56:10.422Z,1.00
2022-12-24T15:58:21.333Z,1.00
2022-12-24T16:00:31.227Z,35.10
2022-12-24T16:02:42.341Z,31.80
2022-12-24T16:04:47.751Z,36.80
2022-12-24T16:06:58.872Z,39.60
2022-12-24T16:09:44.164Z,70.30
2022-12-24T16:11:49.162Z,84.50
2022-12-24T16:14:09.333Z,91.90
2022-12-24T16:16:17.828Z,91.70
2022-12-24T16:18:28.532Z,99.20
2022-12-24T16:20:35.981Z,99.90
2022-12-24T16:22:41.941Z,99.90
2022-12-24T16:24:49.717Z,99.90
2022-12-24T16:26:54.862Z,98.90
2022-12-24T16:29:00.153Z,97.60
2022-12-24T16:31:05.843Z,96.30
2022-12-24T16:33:17.566Z,99.90
2022-12-24T16:35:29.271Z,97.50
2022-12-24T16:37:34.714Z,79.00
2022-12-24T16:39:40.434Z,75.80
2022-12-24T16:42:00.527Z,90.50
2022-12-24T16:44:05.913Z,93.50
2022-12-24T16:46:11.231Z,92.70
2022-12-24T16:48:23.945Z,95.70
2022-12-24T16:50:29.027Z,97.00
2022-12-24T16:52:35.420Z,88.40
2022-12-24T16:54:40.362Z,93.60
2022-12-24T16:56:48.364Z,93.10
2022-12-24T16:58:53.309Z,87.40
2022-12-24T17:00:59.815Z,85.60
2022-12-24T17:03:04.972Z,67.60
2022-12-24T17:05:11.835Z,68.80
2022-12-24T17:07:19.967Z,68.70
2022-12-24T17:09:24.877Z,74.90
2022-12-24T17:11:30.203Z,58.50
2022-12-24T17:13:37.716Z,70.10
2022-12-24T17:15:44.976Z,71.00
2022-12-24T17:17:50.165Z,81.30
2022-12-24T17:19:55.647Z,87.60
2022-12-24T17:22:01.567Z,84.90
2022-12-24T17:24:07.420Z,88.70
2022-12-24T17:26:15.335Z,97.50
2022-12-24T17:28:20.783Z,91.70
2022-12-24T17:30:28.371Z,77.30
2022-12-24T17:32:33.494Z,77.40
2022-12-24T17:34:38.737Z,96.50
2022-12-24T17:36:43.826Z,99.20
2022-12-24T17:38:49.041Z,98.60
2022-12-24T17:40:54.021Z,98.10
2022-12-24T17:42:59.258Z,94.50
2022-12-24T17:45:04.626Z,98.40
2022-12-24T17:47:12.311Z,93.00
2022-12-24T17:49:17.472Z,95.00
2022-12-24T17:51:25.740Z,96.30
2022-12-24T17:53:30.529Z,94.20
2022-12-24T17:55:35.461Z,91.50
2022-12-24T17:57:40.879Z,89.50
2022-12-24T17:59:45.863Z,90.60
2022-12-24T18:01:50.941Z,88.80
2022-12-24T18:04:02.556Z,93.00
2022-12-24T18:06:09.732Z,95.00
2022-12-24T18:08:14.667Z,99.90
2022-12-24T18:10:21.089Z,99.90
2022-12-24T18:12:26.069Z,99.90
2022-12-24T18:14:31.092Z,99.90
2022-12-24T18:16:38.984Z,99.90
2022-12-24T18:18:44.456Z,99.90
2022-12-24T18:20:52.959Z,99.90
2022-12-24T18:22:58.015Z,98.90
2022-12-24T18:25:02.901Z,98.20
2022-12-24T18:27:08.172Z,97.90
2022-12-24T18:29:13.268Z,94.30
2022-12-24T18:31:21.948Z,98.70
2022-12-24T18:33:26.948Z,92.10
2022-12-24T18:35:31.886Z,96.60
2022-12-24T18:37:39.808Z,98.20
2022-12-24T18:39:46.080Z,96.80
2022-12-24T18:41:51.029Z,94.30
2022-12-24T18:43:56.861Z,91.30
2022-12-24T18:46:01.840Z,94.90
2022-12-24T18:48:07.053Z,92.10
2022-12-24T18:50:12.540Z,92.10
2022-12-24T18:52:22.464Z,87.30
2022-12-24T18:54:30.369Z,96.30
2022-12-24T18:56:35.584Z,94.80
2022-12-24T18:58:41.181Z,96.90
2022-12-24T19:00:46.512Z,99.90
2022-12-24T19:02:51.632Z,99.90
2022-12-24T19:04:56.681Z,99.90
2022-12-24T19:07:01.643Z,99.90
2022-12-24T19:09:06.912Z,99.90
2022-12-24T19:11:14.891Z,99.90
2022-12-24T19:13:19.948Z,99.90
2022-12-24T19:15:26.515Z,99.90
2022-12-24T19:17:33.183Z,99.90
2022-12-24T19:19:38.134Z,99.90
2022-12-24T19:21:43.104Z,99.90
2022-12-24T19:23:49.358Z,99.50
2022-12-24T19:25:54.292Z,99.90
2022-12-24T19:28:02.242Z,99.30
2022-12-24T19:30:09.304Z,99.90
2022-12-24T19:32:14.428Z,95.90
2022-12-24T19:34:19.363Z,99.90
2022-12-24T19:36:26.961Z,99.30
2022-12-24T19:38:31.901Z,98.70
2022-12-24T19:40:39.400Z,97.40
2022-12-24T19:42:45.690Z,96.90
2022-12-24T19:44:53.177Z,99.90
2022-12-24T19:46:58.397Z,96.80
2022-12-24T19:49:05.788Z,99.90
2022-12-24T19:51:14.193Z,98.60
2022-12-24T19:53:19.116Z,99.90
2022-12-24T19:55:24.071Z,99.90
2022-12-24T19:57:28.996Z,95.30
2022-12-24T19:59:33.974Z,99.90
2022-12-24T20:01:41.658Z,99.90
2022-12-24T20:03:48.622Z,99.90
2022-12-24T20:05:56.488Z,99.90
2022-12-24T20:08:01.254Z,99.90
2022-12-24T20:10:06.596Z,99.90
2022-12-24T20:12:11.660Z,99.90
2022-12-24T20:14:16.966Z,99.90
2022-12-24T20:16:23.810Z,99.90
2022-12-24T20:18:31.326Z,99.90
2022-12-24T20:20:36.801Z,99.90
2022-12-24T20:22:41.758Z,99.90
2022-12-24T20:24:46.707Z,99.90
2022-12-24T20:26:51.618Z,99.90
2022-12-24T20:28:57.228Z,99.90
2022-12-24T20:31:02.308Z,99.90
2022-12-24T20:33:07.340Z,99.90
2022-12-24T20:35:15.060Z,99.90
2022-12-24T20:37:20.035Z,99.90
2022-12-24T20:39:24.978Z,99.90
2022-12-24T20:41:32.211Z,99.90
2022-12-24T20:43:44.925Z,99.90
2022-12-24T20:45:52.942Z,99.90
2022-12-24T20:47:58.404Z,99.90
2022-12-24T20:50:03.530Z,99.90
2022-12-24T20:52:11.227Z,99.90
2022-12-24T20:54:16.605Z,99.90
2022-12-24T20:56:21.795Z,99.90
2022-12-24T20:58:26.940Z,99.90
2022-12-24T21:00:31.982Z,99.90
2022-12-24T21:02:39.907Z,99.90
2022-12-24T21:04:44.947Z,99.90
2022-12-24T21:06:50.182Z,99.90
2022-12-24T21:08:58.139Z,99.90
2022-12-24T21:11:27.267Z,99.90
2022-12-24T21:13:32.179Z,99.90
2022-12-24T21:15:39.766Z,99.90
2022-12-24T21:17:45.654Z,99.90
2022-12-24T21:19:51.006Z,99.90
2022-12-24T21:21:56.344Z,99.90
2022-12-24T21:24:04.690Z,99.90
2022-12-24T21:26:09.639Z,99.90
2022-12-24T21:28:17.629Z,99.90
2022-12-24T21:30:22.700Z,99.90
2022-12-24T21:32:28.333Z,99.90
2022-12-24T21:34:33.253Z,99.90
2022-12-24T21:36:38.159Z,99.90
2022-12-24T21:38:43.598Z,99.90
2022-12-24T21:41:01.857Z,99.90
2022-12-24T21:43:07.527Z,99.90
2022-12-24T21:45:14.369Z,99.90
2022-12-24T21:47:19.373Z,99.90
2022-12-24T21:49:36.796Z,99.90
2022-12-24T21:51:44.059Z,99.90
2022-12-24T21:54:01.514Z,99.90
2022-12-24T21:56:14.853Z,99.90
2022-12-24T21:58:17.674Z,99.90
2022-12-24T22:00:30.519Z,99.90
2022-12-24T22:02:35.548Z,99.90
2022-12-24T22:04:40.945Z,99.90
2022-12-24T22:06:58.833Z,99.90
2022-12-24T22:09:16.376Z,99.90
2022-12-24T22:11:36.386Z,99.90
2022-12-24T22:13:41.326Z,99.90
2022-12-24T22:15:50.033Z,99.90
2022-12-24T22:17:55.635Z,99.90
2022-12-24T22:20:01.616Z,99.90
2022-12-24T22:22:06.827Z,99.90
2022-12-24T22:24:12.432Z,99.90
2022-12-24T22:26:20.525Z,99.90
2022-12-24T22:28:28.445Z,99.90
2022-12-24T22:30:33.542Z,99.90
2022-12-24T22:32:38.941Z,99.90
2022-12-24T22:34:43.990Z,99.90
2022-12-24T22:36:48.918Z,99.90
2022-12-24T22:38:54.274Z,99.90
2022-12-24T22:40:59.254Z,99.90
2022-12-24T22:43:05.007Z,99.90
2022-12-24T22:45:21.793Z,99.90
2022-12-24T22:47:27.437Z,99.90
2022-12-24T22:49:32.398Z,99.90
2022-12-24T22:51:37.572Z,99.90
2022-12-24T22:53:43.846Z,99.90
2022-12-24T22:55:56.889Z,99.90
2022-12-24T22:58:02.747Z,99.90
2022-12-24T23:00:17.827Z,99.90
2022-12-24T23:02:28.061Z,99.80
2022-12-24T23:04:38.211Z,99.90
2022-12-24T23:06:44.656Z,99.90
2022-12-24T23:08:50.007Z,99.90
2022-12-24T23:10:55.660Z,99.90
2022-12-24T23:13:15.325Z,99.90
2022-12-24T23:15:23.146Z,99.90
2022-12-24T23:17:28.432Z,99.90
2022-12-24T23:19:34.153Z,99.90
2022-12-24T23:21:40.534Z,99.90
2022-12-24T23:23:45.493Z,99.90
2022-12-24T23:25:50.585Z,99.90
2022-12-24T23:27:55.917Z,99.90
2022-12-24T23:30:01.058Z,99.90
2022-12-24T23:32:08.665Z,99.30
2022-12-24T23:34:13.611Z,99.90
2022-12-24T23:36:19.752Z,99.90
2022-12-24T23:38:25.144Z,99.90
2022-12-24T23:40:30.095Z,99.90
2022-12-24T23:42:35.066Z,99.90
2022-12-24T23:44:42.521Z,99.90
2022-12-24T23:46:47.501Z,99.90
2022-12-24T23:48:57.263Z,99.90
2022-12-24T23:51:11.396Z,99.90
2022-12-24T23:53:17.625Z,99.90
2022-12-24T23:55:22.976Z,99.90
2022-12-24T23:57:27.953Z,99.90
2022-12-24T23:59:35.083Z,99.90
